sensor_id;sensor_type;location;lat;lon;timestamp;temperature;humidity
80706;DHT22;70229;48.010;7.852;2023-06-14T20:54:53;22.00;42.80
80706;DHT22;70229;48.010;7.852;2023-06-14T20:57:20;22.10;43.30
80706;DHT22;70229;48.010;7.852;2023-06-14T20:59:47;21.90;43.30
80706;DHT22;70229;48.010;7.852;2023-06-14T21:02:12;22.00;43.60
80706;DHT22;70229;48.010;7.852;2023-06-14T21:07:10;21.90;43.90
80706;DHT22;70229;48.010;7.852;2023-06-14T21:09:36;21.70;43.90
80706;DHT22;70229;48.010;7.852;2023-06-14T21:12:02;21.90;44.20
80706;DHT22;70229;48.010;7.852;2023-06-14T21:14:29;21.90;44.00
80706;DHT22;70229;48.010;7.852;2023-06-14T21:16:58;21.80;43.80
80706;DHT22;70229;48.010;7.852;2023-06-14T21:19:24;21.80;43.50
80706;DHT22;70229;48.010;7.852;2023-06-14T21:21:53;21.80;44.40
80706;DHT22;70229;48.010;7.852;2023-06-14T21:24:19;21.80;44.00
80706;DHT22;70229;48.010;7.852;2023-06-14T21:26:45;21.70;44.70
80706;DHT22;70229;48.010;7.852;2023-06-14T21:29:11;21.70;44.90
80706;DHT22;70229;48.010;7.852;2023-06-14T21:31:37;21.40;44.90
80706;DHT22;70229;48.010;7.852;2023-06-14T21:34:02;21.60;45.10
80706;DHT22;70229;48.010;7.852;2023-06-14T21:36:28;21.60;45.60
80706;DHT22;70229;48.010;7.852;2023-06-14T21:38:54;21.60;45.10
80706;DHT22;70229;48.010;7.852;2023-06-14T21:41:20;21.50;45.30
80706;DHT22;70229;48.010;7.852;2023-06-14T21:43:45;21.40;45.80
80706;DHT22;70229;48.010;7.852;2023-06-14T21:46:11;21.20;45.40
80706;DHT22;70229;48.010;7.852;2023-06-14T21:48:36;21.30;46.40
80706;DHT22;70229;48.010;7.852;2023-06-14T21:51:02;21.20;46.00
80706;DHT22;70229;48.010;7.852;2023-06-14T21:53:28;21.30;46.40
80706;DHT22;70229;48.010;7.852;2023-06-14T21:55:57;21.30;46.20
80706;DHT22;70229;48.010;7.852;2023-06-14T21:58:23;21.30;46.60
80706;DHT22;70229;48.010;7.852;2023-06-14T22:00:48;21.20;46.50
80706;DHT22;70229;48.010;7.852;2023-06-14T22:03:14;21.10;45.50
80706;DHT22;70229;48.010;7.852;2023-06-14T22:05:39;21.30;45.20
80706;DHT22;70229;48.010;7.852;2023-06-14T22:08:05;21.20;45.80
80706;DHT22;70229;48.010;7.852;2023-06-14T22:10:31;21.10;46.80
80706;DHT22;70229;48.010;7.852;2023-06-14T22:12:57;21.00;46.40
80706;DHT22;70229;48.010;7.852;2023-06-14T22:15:26;20.90;46.70
80706;DHT22;70229;48.010;7.852;2023-06-14T22:17:52;20.70;47.10
80706;DHT22;70229;48.010;7.852;2023-06-14T22:20:18;20.70;46.80
80706;DHT22;70229;48.010;7.852;2023-06-14T22:22:44;21.20;47.70
80706;DHT22;70229;48.010;7.852;2023-06-14T22:25:11;20.50;48.30
80706;DHT22;70229;48.010;7.852;2023-06-14T22:27:38;20.90;48.30
80706;DHT22;70229;48.010;7.852;2023-06-14T22:30:15;20.60;48.10
80706;DHT22;70229;48.010;7.852;2023-06-14T22:32:44;20.60;48.30
80706;DHT22;70229;48.010;7.852;2023-06-14T22:35:09;20.60;48.30
80706;DHT22;70229;48.010;7.852;2023-06-14T22:37:35;20.70;48.00
80706;DHT22;70229;48.010;7.852;2023-06-14T22:40:08;20.60;48.30
80706;DHT22;70229;48.010;7.852;2023-06-14T22:42:38;20.30;48.40
80706;DHT22;70229;48.010;7.852;2023-06-14T22:45:07;20.30;49.00
80706;DHT22;70229;48.010;7.852;2023-06-14T22:47:33;20.50;48.00
80706;DHT22;70229;48.010;7.852;2023-06-14T22:49:58;20.30;48.70
80706;DHT22;70229;48.010;7.852;2023-06-14T22:52:27;20.30;48.60
80706;DHT22;70229;48.010;7.852;2023-06-14T22:54:53;20.40;48.60
80706;DHT22;70229;48.010;7.852;2023-06-14T22:57:19;20.30;48.80
80706;DHT22;70229;48.010;7.852;2023-06-14T22:59:45;20.20;48.70
80706;DHT22;70229;48.010;7.852;2023-06-14T23:02:11;20.30;49.10
80706;DHT22;70229;48.010;7.852;2023-06-14T23:04:38;20.30;49.50
80706;DHT22;70229;48.010;7.852;2023-06-14T23:07:04;20.20;49.70
80706;DHT22;70229;48.010;7.852;2023-06-14T23:09:30;20.20;49.80
80706;DHT22;70229;48.010;7.852;2023-06-14T23:11:56;20.20;49.60
80706;DHT22;70229;48.010;7.852;2023-06-14T23:14:22;20.20;49.90
80706;DHT22;70229;48.010;7.852;2023-06-14T23:16:52;20.00;49.80
80706;DHT22;70229;48.010;7.852;2023-06-14T23:19:18;20.20;49.70
80706;DHT22;70229;48.010;7.852;2023-06-14T23:21:45;20.20;49.60
80706;DHT22;70229;48.010;7.852;2023-06-14T23:24:12;20.20;49.60
80706;DHT22;70229;48.010;7.852;2023-06-14T23:26:45;20.30;50.00
80706;DHT22;70229;48.010;7.852;2023-06-14T23:29:12;20.00;50.30
80706;DHT22;70229;48.010;7.852;2023-06-14T23:31:38;20.00;50.60
80706;DHT22;70229;48.010;7.852;2023-06-14T23:34:04;20.00;50.50
80706;DHT22;70229;48.010;7.852;2023-06-14T23:36:30;19.80;50.70
80706;DHT22;70229;48.010;7.852;2023-06-14T23:38:59;19.70;50.50
80706;DHT22;70229;48.010;7.852;2023-06-14T23:41:28;20.00;50.40
80706;DHT22;70229;48.010;7.852;2023-06-14T23:43:58;19.90;50.30
80706;DHT22;70229;48.010;7.852;2023-06-14T23:46:26;20.00;50.20
80706;DHT22;70229;48.010;7.852;2023-06-14T23:48:56;19.10;49.70
80706;DHT22;70229;48.010;7.852;2023-06-14T23:51:23;19.90;49.60
80706;DHT22;70229;48.010;7.852;2023-06-14T23:53:48;19.80;49.40
80706;DHT22;70229;48.010;7.852;2023-06-14T23:56:14;19.90;48.90
80706;DHT22;70229;48.010;7.852;2023-06-14T23:58:46;20.80;49.30
